Time;durP1;ratioP1;P1;durP2;ratioP2;P2;SDS_P1;SDS_P2;PMS_P1;PMS_P2;Temp;Humidity;BMP_temperature;BMP_pressure;BME280_temperature;BME280_humidity;BME280_pressure;Samples;Min_cycle;Max_cycle;Signal;HPM_P1;HPM_P2
2022/01/16 00:00:06;;;;;;;1.23;1.10;;;20.60;54.00;;;;;;5032737;28;20072;-67
2022/01/16 00:05:16;;;;;;;1.30;1.20;;;20.60;54.00;;;;;;5031773;28;20087;-67
2022/01/16 00:07:41;;;;;;;1.00;1.00;;;20.70;54.10;;;;;;5032928;28;20057;-68
2022/01/16 00:10:07;;;;;;;1.20;1.10;;;20.60;54.20;;;;;;5015202;28;20017;-68
2022/01/16 00:12:33;;;;;;;1.10;0.90;;;20.60;54.10;;;;;;5032695;28;20049;-67
2022/01/16 00:14:59;;;;;;;1.00;1.00;;;20.70;55.20;;;;;;5031418;28;20033;-67
2022/01/16 00:17:27;;;;;;;2.08;1.00;;;20.70;54.20;;;;;;5034034;28;20026;-67
2022/01/16 00:19:53;;;;;;;0.93;0.90;;;20.70;54.20;;;;;;5048676;28;20028;-67
2022/01/16 00:22:23;;;;;;;1.30;1.20;;;20.70;54.20;;;;;;5036840;28;20021;-67
2022/01/16 00:24:49;;;;;;;1.73;1.00;;;20.60;54.10;;;;;;5042411;28;20017;-68
2022/01/16 00:27:14;;;;;;;0.95;0.95;;;20.60;54.20;;;;;;5045478;28;20041;-68
2022/01/16 00:29:40;;;;;;;0.93;0.90;;;20.70;54.30;;;;;;5037871;28;20024;-67
2022/01/16 00:32:06;;;;;;;1.08;0.98;;;20.70;54.30;;;;;;5052396;28;20479;-68
2022/01/16 00:34:31;;;;;;;1.50;1.05;;;20.70;54.30;;;;;;5043526;28;20055;-68
2022/01/16 00:36:57;;;;;;;1.20;1.10;;;20.70;54.40;;;;;;5043987;28;20068;-68
2022/01/16 00:39:23;;;;;;;1.25;1.15;;;20.70;54.30;;;;;;5050315;28;20021;-68
2022/01/16 00:41:48;;;;;;;1.40;1.15;;;20.60;54.30;;;;;;5039237;28;20026;-68
2022/01/16 00:44:14;;;;;;;0.93;0.93;;;20.70;54.30;;;;;;5055262;28;20017;-67
2022/01/16 00:46:39;;;;;;;1.00;0.98;;;20.70;54.40;;;;;;5047317;28;20022;-68
2022/01/16 00:49:05;;;;;;;0.82;0.80;;;20.70;54.40;;;;;;5047839;28;20025;-67
2022/01/16 00:51:31;;;;;;;1.17;1.08;;;20.70;54.40;;;;;;5040938;28;20030;-68
2022/01/16 00:53:56;;;;;;;0.88;0.88;;;20.70;54.40;;;;;;5051917;28;20025;-68
2022/01/16 00:56:22;;;;;;;1.08;1.02;;;20.60;54.40;;;;;;5018511;28;20072;-68
2022/01/16 00:58:47;;;;;;;1.65;1.20;;;20.70;54.40;;;;;;5036153;28;20032;-67
2022/01/16 01:01:14;;;;;;;1.13;1.05;;;20.70;54.40;;;;;;5034205;28;20036;-68
2022/01/16 01:03:39;;;;;;;1.10;1.00;;;20.70;54.40;;;;;;5034549;28;20105;-67
2022/01/16 01:06:05;;;;;;;1.10;0.90;;;20.70;54.50;;;;;;5034872;28;20148;-67
2022/01/16 01:08:31;;;;;;;1.50;1.00;;;20.70;54.50;;;;;;5034899;28;20472;-67
2022/01/16 01:10:57;;;;;;;0.93;0.93;;;20.70;54.50;;;;;;5034512;28;20152;-68
2022/01/16 01:13:31;;;;;;;1.10;1.00;;;20.70;54.50;;;;;;5034742;28;20108;-67
2022/01/16 01:16:03;;;;;;;1.13;1.02;;;20.70;54.50;;;;;;5035524;28;20022;-68
2022/01/16 01:18:33;;;;;;;;;;;20.70;54.60;;;;;;5035221;28;20040;-67
2022/01/16 01:20:59;;;;;;;1.00;1.00;;;20.60;54.60;;;;;;5035608;28;19916;-68
2022/01/16 01:23:25;;;;;;;0.82;0.82;;;20.60;54.70;;;;;;5034560;28;20029;-68
2022/01/16 01:25:51;;;;;;;0.93;0.93;;;20.60;54.70;;;;;;5035698;28;20032;-67
2022/01/16 01:28:16;;;;;;;1.15;1.10;;;20.60;54.60;;;;;;5034274;28;20057;-68
2022/01/16 01:30:44;;;;;;;1.45;1.08;;;20.60;54.70;;;;;;5034170;28;20096;-67
2022/01/16 01:33:13;;;;;;;0.90;0.90;;;20.70;54.70;;;;;;5038609;28;20021;-67
2022/01/16 01:35:39;;;;;;;0.93;0.93;;;20.70;54.70;;;;;;5038294;28;20101;-68
2022/01/16 01:38:06;;;;;;;0.80;0.80;;;20.70;54.70;;;;;;5035120;28;20030;-68
2022/01/16 01:40:31;;;;;;;1.10;1.00;;;20.70;54.70;;;;;;5034053;28;20041;-68
2022/01/16 01:51:16;;;;;;;0.90;0.90;;;20.70;54.80;;;;;;5054037;28;20055;-67
2022/01/16 01:53:42;;;;;;;0.88;0.88;;;20.70;54.90;;;;;;5037636;28;20053;-67
2022/01/16 01:56:09;;;;;;;0.90;0.90;;;20.70;54.80;;;;;;5055050;28;20029;-68
2022/01/16 01:58:35;;;;;;;0.90;0.90;;;20.70;54.80;;;;;;5053431;28;20032;-67
2022/01/16 02:01:00;;;;;;;0.90;0.90;;;20.70;54.90;;;;;;5054939;28;20395;-67
2022/01/16 02:03:33;;;;;;;2.90;0.82;;;20.70;54.90;;;;;;5037031;28;20027;-67
2022/01/16 02:05:59;;;;;;;1.75;0.90;;;20.70;54.90;;;;;;5038207;28;20475;-68
2022/01/16 02:08:25;;;;;;;1.23;0.82;;;20.70;54.90;;;;;;5053884;28;20036;-68
2022/01/16 02:10:51;;;;;;;1.00;1.00;;;20.70;54.90;;;;;;5053517;28;20028;-67
2022/01/16 02:13:27;;;;;;;1.05;0.90;;;20.70;55.00;;;;;;5053097;28;20025;-67
2022/01/16 02:34:54;;;;;;;1.17;0.90;;;20.70;55.10;;;;;;5071876;28;20454;-68
2022/01/16 02:37:23;;;;;;;0.82;0.82;;;20.70;55.10;;;;;;5043857;28;20076;-68
2022/01/16 02:39:51;;;;;;;2.03;0.95;;;20.70;55.10;;;;;;5052101;28;20028;-68
2022/01/16 02:42:18;;;;;;;0.98;0.90;;;20.70;55.10;;;;;;5051418;28;20037;-68
2022/01/16 02:44:49;;;;;;;0.90;0.90;;;20.70;55.10;;;;;;5055673;28;20024;-68
2022/01/16 02:47:19;;;;;;;1.10;0.73;;;20.70;55.10;;;;;;5071726;28;20048;-67
2022/01/16 02:49:48;;;;;;;0.80;0.80;;;20.70;55.20;;;;;;5055543;28;20395;-67
2022/01/16 02:52:17;;;;;;;0.90;0.90;;;20.70;55.20;;;;;;5071011;28;20113;-67
2022/01/16 02:54:44;;;;;;;1.10;1.00;;;20.80;55.20;;;;;;5068800;28;20112;-68
2022/01/16 02:57:20;;;;;;;0.77;0.77;;;20.70;55.20;;;;;;5033703;28;20021;-67
2022/01/16 02:59:53;;;;;;;0.90;0.90;;;20.80;55.20;;;;;;5016298;28;20468;-67
2022/01/16 03:02:20;;;;;;;2.03;0.80;;;20.80;55.20;;;;;;5032690;28;20369;-67
2022/01/16 03:04:45;;;;;;;1.45;1.10;;;20.70;55.20;;;;;;5032541;28;20013;-67
2022/01/16 03:07:11;;;;;;;1.08;0.98;;;20.70;55.20;;;;;;5032471;28;20365;-67
2022/01/16 03:10:02;;;;;;;1.02;0.90;;;20.70;55.20;;;;;;5032563;28;20563;-67
2022/01/16 03:12:28;;;;;;;1.05;0.95;;;20.70;55.20;;;;;;5033616;28;20068;-67
2022/01/16 03:14:53;;;;;;;1.30;0.90;;;20.70;55.20;;;;;;5015969;28;20429;-67
2022/01/16 03:17:35;;;;;;;0.95;0.93;;;20.70;55.20;;;;;;5033581;28;20387;-67
2022/01/16 03:22:46;;;;;;;1.10;1.00;;;20.70;55.30;;;;;;5033414;28;20113;-68
2022/01/16 03:25:11;;;;;;;1.33;0.90;;;20.70;55.30;;;;;;5031913;28;20105;-67
2022/01/16 03:27:38;;;;;;;0.70;0.70;;;20.70;55.30;;;;;;5033423;28;20431;-67
2022/01/16 03:30:04;;;;;;;0.80;0.80;;;20.70;55.30;;;;;;5032224;28;20062;-68
2022/01/16 03:32:30;;;;;;;1.05;0.98;;;20.70;55.30;;;;;;5031988;28;20025;-68
2022/01/16 03:34:55;;;;;;;1.20;1.00;;;20.70;55.40;;;;;;5033493;28;20464;-68
2022/01/16 03:37:21;;;;;;;0.80;0.80;;;20.70;55.30;;;;;;5033211;28;20057;-67
2022/01/16 03:39:46;;;;;;;1.20;1.10;;;20.70;55.40;;;;;;5033204;28;20026;-68
2022/01/16 03:42:12;;;;;;;1.40;0.80;;;20.70;55.40;;;;;;5031767;28;20029;-67
2022/01/16 03:44:38;;;;;;;0.90;0.90;;;20.70;55.30;;;;;;5040484;28;20475;-67
2022/01/16 03:47:04;;;;;;;1.08;0.98;;;20.70;55.40;;;;;;5052992;28;20473;-67
2022/01/16 03:49:30;;;;;;;1.63;1.08;;;20.70;55.40;;;;;;5051812;28;20021;-68
2022/01/16 03:51:56;;;;;;;1.85;0.82;;;20.70;55.40;;;;;;5035371;28;20017;-68
2022/01/16 03:54:24;;;;;;;1.10;1.00;;;20.70;55.40;;;;;;5051308;28;20029;-68
2022/01/16 03:56:50;;;;;;;0.90;0.90;;;20.70;55.40;;;;;;5035469;28;20047;-68
2022/01/16 03:59:16;;;;;;;0.73;0.73;;;20.80;55.40;;;;;;5052830;28;20466;-67
2022/01/16 04:01:41;;;;;;;0.80;0.80;;;20.80;55.40;;;;;;5051731;28;20086;-68
2022/01/16 04:04:07;;;;;;;0.75;0.73;;;20.70;55.50;;;;;;5040903;28;20025;-67
2022/01/16 04:06:33;;;;;;;0.73;0.73;;;20.70;55.40;;;;;;5044014;28;20070;-67
2022/01/16 04:08:59;;;;;;;1.10;1.00;;;20.70;55.50;;;;;;5034924;28;20032;-67
2022/01/16 04:11:26;;;;;;;1.02;0.93;;;20.70;55.50;;;;;;5050605;28;20033;-67
2022/01/16 04:13:54;;;;;;;1.48;0.73;;;20.70;55.50;;;;;;5037331;28;20033;-68
2022/01/16 04:16:22;;;;;;;1.00;0.80;;;20.70;55.50;;;;;;5048406;28;20428;-67
2022/01/16 04:18:50;;;;;;;0.60;0.60;;;20.70;55.50;;;;;;5037556;28;20095;-67
2022/01/16 04:21:17;;;;;;;0.77;0.77;;;20.70;55.50;;;;;;5040905;28;20453;-67
2022/01/16 04:23:43;;;;;;;1.65;0.90;;;20.70;55.60;;;;;;5045938;28;20048;-67
2022/01/16 04:26:09;;;;;;;1.00;1.00;;;20.70;55.60;;;;;;5034639;28;20409;-67
2022/01/16 04:28:34;;;;;;;0.93;0.82;;;20.70;55.60;;;;;;5051271;28;20045;-68
2022/01/16 04:31:00;;;;;;;1.13;0.70;;;20.70;55.60;;;;;;5051479;28;20031;-67
2022/01/16 04:33:26;;;;;;;1.85;0.75;;;20.70;55.60;;;;;;5051340;28;20075;-67
2022/01/16 04:35:51;;;;;;;1.13;0.70;;;20.70;55.60;;;;;;5051182;28;20392;-67
2022/01/16 04:38:17;;;;;;;0.80;0.80;;;20.70;55.60;;;;;;5032555;28;20067;-68
2022/01/16 04:43:47;;;;;;;0.98;0.90;;;20.70;55.60;;;;;;5049096;28;20032;-67
2022/01/16 04:46:12;;;;;;;0.55;0.55;;;20.70;55.70;;;;;;5017489;28;20056;-68
2022/01/16 04:48:38;;;;;;;0.85;0.80;;;20.70;55.80;;;;;;5032314;28;20026;-67
2022/01/16 04:51:03;;;;;;;1.20;1.00;;;20.70;55.70;;;;;;5031201;28;20071;-67
2022/01/16 04:53:29;;;;;;;0.82;0.82;;;20.70;55.70;;;;;;5032064;28;20026;-67
2022/01/16 04:55:55;;;;;;;0.70;0.70;;;20.70;55.80;;;;;;5032488;28;20032;-67
2022/01/16 04:58:21;;;;;;;0.90;0.90;;;20.70;55.80;;;;;;5035510;28;20025;-67
2022/01/16 05:00:47;;;;;;;2.35;0.70;;;20.70;55.80;;;;;;5034555;28;20146;-68
2022/01/16 05:03:12;;;;;;;2.03;0.80;;;20.70;55.80;;;;;;5052050;28;20132;-67
2022/01/16 05:05:38;;;;;;;0.70;0.70;;;20.70;55.80;;;;;;5051169;28;20032;-67
2022/01/16 05:08:04;;;;;;;1.00;0.90;;;20.70;55.80;;;;;;5043332;28;20080;-67
2022/01/16 05:10:30;;;;;;;0.60;0.60;;;20.70;55.80;;;;;;5033003;28;20025;-67
2022/01/16 05:13:04;;;;;;;0.60;0.60;;;20.70;55.80;;;;;;5035850;28;20048;-68
2022/01/16 05:18:14;;;;;;;0.70;0.70;;;20.70;55.80;;;;;;5038934;28;20039;-67
2022/01/16 05:20:40;;;;;;;0.95;0.82;;;20.70;55.80;;;;;;5039567;28;20025;-67
2022/01/16 05:23:05;;;;;;;0.70;0.70;;;20.70;55.80;;;;;;5040618;28;20029;-68
2022/01/16 05:25:31;;;;;;;0.90;0.80;;;20.70;55.80;;;;;;5039619;28;20549;-67
2022/01/16 05:27:57;;;;;;;0.73;0.73;;;20.70;55.80;;;;;;5042173;28;20084;-68
2022/01/16 05:30:22;;;;;;;1.50;0.80;;;20.70;55.80;;;;;;5038599;28;20018;-68
2022/01/16 05:32:48;;;;;;;0.68;0.60;;;20.70;55.80;;;;;;5039710;28;20491;-67
2022/01/16 05:35:15;;;;;;;0.77;0.70;;;20.70;55.80;;;;;;5039391;28;20045;-68
2022/01/16 05:37:40;;;;;;;1.27;0.90;;;20.70;55.80;;;;;;5038690;28;20021;-68
2022/01/16 05:40:06;;;;;;;1.00;0.70;;;20.70;55.80;;;;;;5039770;28;20021;-67
2022/01/16 05:42:32;;;;;;;0.80;0.80;;;20.70;55.80;;;;;;5040815;28;20029;-68
2022/01/16 05:44:58;;;;;;;2.30;0.80;;;20.70;55.80;;;;;;5039468;28;20053;-68
2022/01/16 05:47:24;;;;;;;1.15;0.90;;;20.70;55.90;;;;;;5040202;28;20021;-68
2022/01/16 05:49:50;;;;;;;0.70;0.70;;;20.70;55.90;;;;;;5040513;28;20037;-68
2022/01/16 05:52:15;;;;;;;1.95;0.90;;;20.70;55.80;;;;;;5040969;28;20505;-68
2022/01/16 05:54:41;;;;;;;0.98;0.77;;;20.70;55.90;;;;;;5040569;28;20025;-67
2022/01/16 05:57:07;;;;;;;1.20;0.80;;;20.70;56.90;;;;;;5040648;28;20033;-67
2022/01/16 05:59:32;;;;;;;1.40;0.88;;;20.70;55.80;;;;;;5039494;28;20376;-68
2022/01/16 06:01:58;;;;;;;0.70;0.70;;;20.70;55.90;;;;;;5040334;28;20457;-67
2022/01/16 06:04:24;;;;;;;0.80;0.80;;;20.70;55.80;;;;;;5038596;28;20018;-67
2022/01/16 06:06:49;;;;;;;0.80;0.80;;;20.70;55.90;;;;;;5039980;28;20076;-67
2022/01/16 06:09:15;;;;;;;1.15;0.80;;;20.70;55.90;;;;;;5042192;28;20025;-67
2022/01/16 06:11:40;;;;;;;0.77;0.70;;;20.70;55.90;;;;;;5041249;28;20079;-68
2022/01/16 06:14:06;;;;;;;0.90;0.90;;;20.70;55.90;;;;;;5042199;28;20029;-67
2022/01/16 06:16:33;;;;;;;0.73;0.70;;;20.70;55.90;;;;;;5043097;28;20029;-67
2022/01/16 06:18:59;;;;;;;4.63;1.08;;;20.70;55.90;;;;;;5042615;28;20544;-67
2022/01/16 06:21:24;;;;;;;0.80;0.80;;;20.70;56.00;;;;;;5042846;28;20029;-67
2022/01/16 06:23:50;;;;;;;0.95;0.95;;;20.70;56.00;;;;;;5043096;28;20048;-68
2022/01/16 06:26:15;;;;;;;1.58;0.88;;;20.70;56.00;;;;;;5041580;28;20051;-67
2022/01/16 06:28:41;;;;;;;3.03;0.90;;;20.70;56.00;;;;;;5040176;28;20041;-68
2022/01/16 06:31:07;;;;;;;1.20;0.80;;;20.70;56.00;;;;;;5041281;28;20037;-68
2022/01/16 06:33:32;;;;;;;3.53;0.82;;;20.70;56.00;;;;;;5040290;28;20025;-67
2022/01/16 06:35:58;;;;;;;1.20;0.70;;;20.70;56.10;;;;;;5041953;28;20100;-67
2022/01/16 06:38:24;;;;;;;0.90;0.70;;;20.80;56.10;;;;;;5043066;28;20033;-67
2022/01/16 06:40:49;;;;;;;1.17;0.60;;;20.70;56.10;;;;;;5042713;28;20395;-67
2022/01/16 06:43:15;;;;;;;1.75;0.82;;;20.70;56.10;;;;;;5041323;28;20519;-68
2022/01/16 06:45:40;;;;;;;2.30;0.88;;;20.70;56.10;;;;;;5042273;28;20480;-67
2022/01/16 06:48:06;;;;;;;0.80;0.80;;;20.80;56.10;;;;;;5043420;28;20023;-68
2022/01/16 06:50:32;;;;;;;1.33;0.68;;;20.70;56.10;;;;;;5043969;28;20511;-68
2022/01/16 06:52:57;;;;;;;1.15;0.82;;;20.70;56.10;;;;;;5043151;28;20029;-68
2022/01/16 06:55:23;;;;;;;1.85;0.70;;;20.70;56.10;;;;;;5042350;28;20075;-68
2022/01/16 06:57:49;;;;;;;4.32;0.70;;;20.70;56.10;;;;;;5045018;28;20579;-67
2022/01/16 07:00:14;;;;;;;1.10;0.70;;;20.70;56.10;;;;;;5044527;28;20813;-68
2022/01/16 07:02:40;;;;;;;1.30;0.70;;;20.80;56.30;;;;;;5043473;28;20024;-67
2022/01/16 07:05:06;;;;;;;2.45;0.90;;;20.70;56.20;;;;;;5044771;28;20013;-67
2022/01/16 07:07:32;;;;;;;1.10;0.70;;;20.70;56.20;;;;;;5044533;28;20497;-68
2022/01/16 07:09:57;;;;;;;0.85;0.70;;;20.70;56.20;;;;;;5043543;28;20108;-67
2022/01/16 07:12:23;;;;;;;1.45;0.65;;;20.70;56.20;;;;;;5045310;28;20025;-68
2022/01/16 07:14:49;;;;;;;1.80;0.73;;;20.70;56.20;;;;;;5044754;28;20017;-68
2022/01/16 07:17:14;;;;;;;0.95;0.80;;;20.70;56.20;;;;;;5045271;28;20021;-68
2022/01/16 07:19:40;;;;;;;1.50;0.90;;;20.70;56.20;;;;;;5045868;28;20052;-67
2022/01/16 07:22:06;;;;;;;0.75;0.70;;;20.70;56.30;;;;;;5048738;28;20032;-68
2022/01/16 07:24:32;;;;;;;2.85;1.00;;;20.70;56.20;;;;;;5049013;28;20025;-67
2022/01/16 07:27:00;;;;;;;1.05;0.90;;;20.80;56.30;;;;;;5049691;28;20106;-68
2022/01/16 07:29:27;;;;;;;2.15;0.80;;;20.70;56.20;;;;;;5032413;28;20068;-68
2022/01/16 07:31:53;;;;;;;0.80;0.70;;;20.70;56.30;;;;;;5048679;28;20028;-67
2022/01/16 07:34:19;;;;;;;1.83;0.90;;;20.70;56.30;;;;;;5047988;28;20028;-67
2022/01/16 07:36:44;;;;;;;0.60;0.60;;;20.70;56.30;;;;;;5047467;28;20479;-67
2022/01/16 07:39:10;;;;;;;1.40;0.80;;;20.70;56.30;;;;;;5046705;28;20029;-67
2022/01/16 07:41:35;;;;;;;0.90;0.80;;;20.70;56.30;;;;;;5047281;28;20025;-67
2022/01/16 07:44:01;;;;;;;0.60;0.50;;;20.70;56.30;;;;;;5047828;28;20033;-68
2022/01/16 07:46:27;;;;;;;2.72;0.90;;;20.70;56.30;;;;;;5035028;28;20372;-68
2022/01/16 07:48:53;;;;;;;1.30;0.63;;;20.70;56.30;;;;;;5032343;28;20049;-68
2022/01/16 07:51:19;;;;;;;1.02;0.68;;;20.70;56.30;;;;;;5034225;28;20037;-67
2022/01/16 07:53:44;;;;;;;1.67;0.70;;;20.70;56.40;;;;;;5038248;28;20462;-68
2022/01/16 07:56:10;;;;;;;1.90;0.60;;;20.70;56.90;;;;;;5033300;28;20487;-67
2022/01/16 07:58:36;;;;;;;0.75;0.75;;;20.70;56.40;;;;;;5031741;28;20066;-68
2022/01/16 08:01:03;;;;;;;2.15;0.80;;;20.70;56.40;;;;;;5031560;28;20029;-67
2022/01/16 08:03:28;;;;;;;1.45;0.75;;;20.70;57.40;;;;;;5031863;28;20514;-67
2022/01/16 08:05:54;;;;;;;0.70;0.70;;;20.70;56.40;;;;;;5032053;28;20005;-67
2022/01/16 08:08:19;;;;;;;0.80;0.73;;;20.70;56.40;;;;;;5035817;28;20091;-68
2022/01/16 08:10:45;;;;;;;1.75;0.73;;;20.70;56.40;;;;;;5029217;28;20094;-68
2022/01/16 08:13:11;;;;;;;0.75;0.75;;;20.70;56.40;;;;;;5035679;28;20017;-68
2022/01/16 08:15:36;;;;;;;0.57;0.57;;;20.70;56.40;;;;;;5033048;28;20017;-68
2022/01/16 08:18:02;;;;;;;0.88;0.70;;;20.70;56.40;;;;;;5030586;28;20462;-68
2022/01/16 08:20:28;;;;;;;0.70;0.70;;;20.70;56.40;;;;;;5029687;28;20408;-67
2022/01/16 08:22:54;;;;;;;1.70;0.70;;;20.70;56.40;;;;;;5030974;28;20048;-67
2022/01/16 08:25:20;;;;;;;1.00;0.60;;;20.70;56.40;;;;;;5031827;28;20483;-68
2022/01/16 08:27:45;;;;;;;1.70;0.63;;;20.70;56.40;;;;;;5029473;28;20048;-68
2022/01/16 08:30:11;;;;;;;1.65;0.70;;;20.70;56.40;;;;;;5031386;28;20021;-67
2022/01/16 08:32:38;;;;;;;0.85;0.70;;;20.70;56.50;;;;;;5032745;28;20031;-67
2022/01/16 08:35:05;;;;;;;0.88;0.60;;;20.70;56.50;;;;;;5029588;28;20032;-68
2022/01/16 08:37:31;;;;;;;0.85;0.70;;;20.70;56.50;;;;;;5032436;28;20028;-68
2022/01/16 08:39:56;;;;;;;1.75;0.80;;;20.70;56.60;;;;;;5031950;28;20388;-67
2022/01/16 08:42:22;;;;;;;2.75;0.80;;;20.70;56.50;;;;;;5029511;28;20071;-67
2022/01/16 08:44:49;;;;;;;2.00;0.80;;;20.70;56.50;;;;;;5030240;28;20025;-67
2022/01/16 08:47:15;;;;;;;3.83;0.70;;;20.70;56.60;;;;;;5032553;28;20026;-68
2022/01/16 08:49:40;;;;;;;0.95;0.60;;;20.70;56.50;;;;;;5032106;28;20075;-67
2022/01/16 08:52:06;;;;;;;0.77;0.45;;;20.70;56.50;;;;;;5036332;28;20071;-67
2022/01/16 08:54:33;;;;;;;1.67;0.90;;;20.70;56.60;;;;;;5049612;28;20017;-68
2022/01/16 08:56:59;;;;;;;0.43;0.43;;;20.70;56.60;;;;;;5052533;28;20025;-68
2022/01/16 08:59:25;;;;;;;0.65;0.60;;;20.70;56.60;;;;;;5042973;28;20017;-68
2022/01/16 09:01:51;;;;;;;1.27;0.50;;;20.70;56.60;;;;;;5027590;28;20075;-68
2022/01/16 09:04:16;;;;;;;0.63;0.60;;;20.70;56.60;;;;;;5048708;28;20028;-68
2022/01/16 09:06:42;;;;;;;0.40;0.40;;;20.70;56.60;;;;;;5055879;28;20025;-68
2022/01/16 09:09:07;;;;;;;1.20;0.60;;;20.70;56.70;;;;;;5056045;28;20056;-68
2022/01/16 09:11:33;;;;;;;0.70;0.70;;;20.70;56.60;;;;;;5055932;28;20567;-68
2022/01/16 09:13:59;;;;;;;0.60;0.50;;;20.70;56.60;;;;;;5054777;28;20360;-67
2022/01/16 09:16:25;;;;;;;1.00;0.80;;;20.70;56.60;;;;;;5039490;28;20427;-68
2022/01/16 09:18:50;;;;;;;2.67;0.70;;;20.70;56.60;;;;;;5050519;28;20434;-68
2022/01/16 09:21:16;;;;;;;2.08;1.17;;;20.70;56.60;;;;;;5039505;28;20059;-68
2022/01/16 09:23:46;;;;;;;0.85;0.85;;;20.70;56.90;;;;;;5055767;28;20079;-67
2022/01/16 09:26:12;;;;;;;0.82;0.60;;;20.70;56.60;;;;;;5054455;28;20036;-67
2022/01/16 09:28:38;;;;;;;1.20;0.50;;;20.60;56.30;;;;;;5051129;28;20116;-71
2022/01/16 09:31:05;;;;;;;0.60;0.60;;;20.60;56.40;;;;;;5048078;28;20108;-71
2022/01/16 09:33:30;;;;;;;0.80;0.60;;;20.60;56.50;;;;;;5057947;28;20103;-72
2022/01/16 09:35:56;;;;;;;0.90;0.80;;;20.60;56.60;;;;;;5024914;28;20121;-71
2022/01/16 09:38:22;;;;;;;0.68;0.68;;;20.60;56.60;;;;;;5056410;28;20029;-70
2022/01/16 09:40:48;;;;;;;0.80;0.80;;;20.60;56.70;;;;;;5036499;28;20037;-70
2022/01/16 09:43:13;;;;;;;1.10;0.80;;;20.70;56.80;;;;;;5046588;28;20017;-71
2022/01/16 09:45:39;;;;;;;1.15;0.60;;;20.70;56.80;;;;;;5025918;28;20025;-70
2022/01/16 09:48:05;;;;;;;0.95;0.60;;;20.70;56.80;;;;;;5041994;28;20025;-72
2022/01/16 09:50:31;;;;;;;1.27;0.75;;;20.80;56.80;;;;;;5047222;28;20036;-72
2022/01/16 09:52:56;;;;;;;0.65;0.65;;;20.80;56.70;;;;;;5033613;28;20025;-72
2022/01/16 09:55:22;;;;;;;1.00;0.70;;;20.80;56.80;;;;;;5033689;28;20116;-72
2022/01/16 09:57:51;;;;;;;0.60;0.57;;;20.80;56.80;;;;;;5041880;28;20483;-71
2022/01/16 10:00:18;;;;;;;1.02;0.90;;;20.90;56.80;;;;;;5032014;28;20052;-71
2022/01/16 10:02:44;;;;;;;1.88;0.70;;;20.90;56.80;;;;;;5045235;28;20032;-71
2022/01/16 10:05:42;;;;;;;0.95;0.65;;;20.90;56.70;;;;;;5054964;28;20024;-71
2022/01/16 10:08:09;;;;;;;1.38;0.60;;;21.00;56.50;;;;;;5048761;28;20403;-71
2022/01/16 10:10:37;;;;;;;0.60;0.60;;;21.00;56.80;;;;;;5035238;28;20403;-71
2022/01/16 10:13:22;;;;;;;0.73;0.70;;;21.00;56.70;;;;;;5031567;28;20085;-71
2022/01/16 10:15:54;;;;;;;0.85;0.77;;;21.00;56.40;;;;;;5032224;28;20395;-72
2022/01/16 10:18:30;;;;;;;0.60;0.60;;;21.00;56.60;;;;;;5030728;28;20109;-71
2022/01/16 10:20:56;;;;;;;0.60;0.60;;;21.00;56.70;;;;;;5017015;28;20025;-71
2022/01/16 10:23:21;;;;;;;0.60;0.47;;;21.00;56.60;;;;;;5009013;28;20032;-71
2022/01/16 10:25:48;;;;;;;0.98;0.77;;;21.00;56.60;;;;;;5031901;28;20025;-71
2022/01/16 10:28:18;;;;;;;1.23;0.70;;;21.10;56.60;;;;;;5047549;28;20049;-71
2022/01/16 10:30:49;;;;;;;1.13;0.63;;;21.10;56.60;;;;;;5029311;28;20037;-71
2022/01/16 10:33:16;;;;;;;0.52;0.52;;;21.10;56.50;;;;;;5026728;28;20525;-71
2022/01/16 10:35:43;;;;;;;1.05;0.73;;;21.10;56.50;;;;;;5039211;28;20027;-74
2022/01/16 10:38:10;;;;;;;1.15;0.52;;;21.20;56.60;;;;;;5043961;28;20045;-73
2022/01/16 10:40:38;;;;;;;0.60;0.60;;;21.20;56.50;;;;;;5025536;28;20031;-75
2022/01/16 10:43:06;;;;;;;0.50;0.50;;;21.20;56.50;;;;;;5048640;28;20037;-77
2022/01/16 10:45:32;;;;;;;0.65;0.65;;;21.20;56.50;;;;;;5050486;28;20406;-77
2022/01/16 10:48:02;;;;;;;0.47;0.47;;;21.20;56.40;;;;;;5040184;28;20079;-76
2022/01/16 10:50:32;;;;;;;0.50;0.50;;;21.20;56.30;;;;;;5022813;28;20092;-77
2022/01/16 10:53:02;;;;;;;0.65;0.63;;;21.20;56.30;;;;;;5041153;28;20028;-77
2022/01/16 10:55:32;;;;;;;0.50;0.50;;;21.30;56.40;;;;;;5035547;28;20017;-73
2022/01/16 10:58:07;;;;;;;0.57;0.57;;;21.30;56.30;;;;;;5052086;28;20104;-73
2022/01/16 11:00:33;;;;;;;1.13;0.60;;;21.30;56.30;;;;;;5046825;28;20101;-73
2022/01/16 11:03:00;;;;;;;0.60;0.60;;;21.30;56.30;;;;;;5020869;28;20159;-73
2022/01/16 11:05:27;;;;;;;0.60;0.60;;;21.30;56.20;;;;;;5031702;28;20031;-73
2022/01/16 11:08:13;;;;;;;0.60;0.60;;;21.30;56.20;;;;;;5028738;28;20390;-72
2022/01/16 11:11:00;;;;;;;0.68;0.60;;;21.40;56.20;;;;;;5031511;28;20063;-74
2022/01/16 11:13:30;;;;;;;1.75;0.60;;;21.40;56.20;;;;;;5039151;28;20171;-74
2022/01/16 11:16:07;;;;;;;0.50;0.50;;;21.40;56.20;;;;;;5022663;28;20052;-75
2022/01/16 11:18:47;;;;;;;0.65;0.63;;;21.40;56.20;;;;;;5024150;28;20021;-75
2022/01/16 11:21:19;;;;;;;0.80;0.50;;;21.40;56.20;;;;;;5047374;28;20268;-74
2022/01/16 11:24:00;;;;;;;0.90;0.70;;;21.40;56.20;;;;;;5024017;28;20017;-74
2022/01/16 11:26:27;;;;;;;0.50;0.50;;;21.40;56.30;;;;;;5017371;28;20112;-74
2022/01/16 11:28:53;;;;;;;0.50;0.50;;;21.40;56.20;;;;;;5038735;28;20041;-73
2022/01/16 11:31:19;;;;;;;1.02;0.50;;;21.40;56.20;;;;;;5041514;28;20024;-71
2022/01/16 11:33:45;;;;;;;1.05;0.60;;;21.40;56.40;;;;;;5041653;28;20422;-71
2022/01/16 11:36:16;;;;;;;0.60;0.60;;;21.50;56.20;;;;;;5040137;28;20032;-71
2022/01/16 11:38:50;;;;;;;0.55;0.55;;;21.50;56.20;;;;;;5044655;28;20048;-70
2022/01/16 11:41:33;;;;;;;1.85;0.75;;;21.50;56.10;;;;;;5040091;28;20013;-71
2022/01/16 11:44:04;;;;;;;0.50;0.50;;;21.50;56.10;;;;;;5035480;28;20392;-71
2022/01/16 11:46:30;;;;;;;0.55;0.43;;;21.50;56.10;;;;;;5031189;28;20067;-71
2022/01/16 11:48:59;;;;;;;0.88;0.80;;;21.50;56.10;;;;;;5046267;28;20021;-70
2022/01/16 11:51:39;;;;;;;0.77;0.47;;;21.50;56.00;;;;;;5051984;28;20028;-71
2022/01/16 11:54:08;;;;;;;1.08;0.52;;;21.60;56.00;;;;;;5051119;28;20021;-70
2022/01/16 11:56:40;;;;;;;0.65;0.45;;;21.50;56.00;;;;;;5049279;28;20029;-70
2022/01/16 11:59:12;;;;;;;0.50;0.50;;;21.50;56.90;;;;;;5051509;28;20116;-70
2022/01/16 12:01:54;;;;;;;0.60;0.60;;;21.60;56.00;;;;;;5051229;28;20032;-70
2022/01/16 12:04:29;;;;;;;;;;;21.60;55.90;;;;;;5049240;28;20078;-70
2022/01/16 12:07:01;;;;;;;1.23;0.73;;;21.50;55.70;;;;;;5043988;28;20016;-70
2022/01/16 12:09:45;;;;;;;0.63;0.50;;;21.50;56.20;;;;;;5042916;28;20117;-70
2022/01/16 12:12:14;;;;;;;0.90;0.60;;;21.60;56.10;;;;;;5042704;28;20115;-70
2022/01/16 12:15:02;;;;;;;0.63;0.63;;;21.50;57.10;;;;;;5046419;28;20522;-71
2022/01/16 12:17:31;;;;;;;1.50;0.63;;;21.60;55.80;;;;;;5037320;28;20033;-71
2022/01/16 12:20:09;;;;;;;1.20;1.10;;;21.60;56.00;;;;;;5037624;28;20040;-70
2022/01/16 12:22:53;;;;;;;2.72;1.75;;;21.50;55.00;;;;;;5030543;28;20080;-70
2022/01/16 12:25:39;;;;;;;3.95;2.20;;;21.50;54.70;;;;;;5042799;28;20060;-70
2022/01/16 12:28:06;;;;;;;3.90;2.33;;;21.30;54.20;;;;;;5046754;28;20047;-70
2022/01/16 12:30:59;;;;;;;4.97;2.80;;;21.20;54.30;;;;;;5043614;28;20435;-70
2022/01/16 12:33:43;;;;;;;4.93;2.80;;;21.10;53.90;;;;;;5045481;28;20116;-71
2022/01/16 12:36:13;;;;;;;6.70;3.15;;;21.00;53.90;;;;;;5045420;28;20044;-70
2022/01/16 12:38:42;;;;;;;4.20;2.80;;;20.80;54.20;;;;;;5037294;28;20017;-70
2022/01/16 12:41:16;;;;;;;3.50;2.75;;;20.70;54.00;;;;;;5044411;28;20068;-70
2022/01/16 12:43:50;;;;;;;5.35;2.83;;;20.60;54.00;;;;;;5044429;28;20013;-70
2022/01/16 12:46:21;;;;;;;4.57;3.08;;;20.60;54.00;;;;;;5049446;28;20031;-70
2022/01/16 12:48:50;;;;;;;5.10;3.10;;;20.50;54.10;;;;;;5033923;28;20470;-70
2022/01/16 12:51:15;;;;;;;6.43;2.83;;;20.40;55.00;;;;;;5040469;28;20029;-70
2022/01/16 12:53:45;;;;;;;4.53;3.03;;;20.30;54.00;;;;;;5052622;28;20029;-70
2022/01/16 12:56:23;;;;;;;4.10;2.97;;;20.20;53.90;;;;;;5036775;28;20068;-70
2022/01/16 12:58:57;;;;;;;8.25;3.20;;;20.20;54.00;;;;;;5041340;28;20076;-66
2022/01/16 13:01:23;;;;;;;5.40;3.20;;;20.00;54.10;;;;;;5032932;28;20018;-67
2022/01/16 13:03:48;;;;;;;6.75;3.10;;;20.00;54.40;;;;;;5033889;28;20029;-66
2022/01/16 13:06:21;;;;;;;7.20;3.08;;;20.00;54.50;;;;;;5033605;28;20360;-66
2022/01/16 13:09:03;;;;;;;;;;;20.00;54.70;;;;;;5034324;28;20025;-66
2022/01/16 13:11:33;;;;;;;8.63;2.92;;;20.00;54.70;;;;;;5065672;28;19991;-66
2022/01/16 13:13:59;;;;;;;7.57;2.58;;;19.90;55.00;;;;;;5032552;28;20032;-66
2022/01/16 13:16:38;;;;;;;10.23;2.78;;;20.00;55.00;;;;;;5032795;28;20038;-66
2022/01/16 13:19:15;;;;;;;9.98;2.97;;;20.10;55.00;;;;;;5033948;28;20018;-66
2022/01/16 13:24:32;;;;;;;9.43;2.72;;;20.00;55.00;;;;;;5035415;28;20527;-66
2022/01/16 13:26:58;;;;;;;8.30;3.03;;;20.00;55.10;;;;;;5033712;28;20049;-66
2022/01/16 13:29:24;;;;;;;7.35;2.60;;;20.00;55.10;;;;;;5033619;28;20036;-66
2022/01/16 13:31:50;;;;;;;8.57;2.60;;;20.00;55.10;;;;;;5033995;28;20033;-66